In Rescue
 
Open Full Screen Window  High Contrast Mode
Wind Gusting 21 knots
12
February 24, 2019 12:35 AM EST
Weather Information
Wind Direction
  180 °
Wind Speed
  12 kt (14 mph)
Wind Gust
  21 kt (24 mph)
Variable Wind
150°
210°
Altimeter
29.56 in
Visibility
10 SM
Temperature
14° C
57° F
Dewpoint
12° C
54° F
Humidity
88%
1hr Rain Fall
00.02 in.
24hr Rain Fall
00.15 in.
Sky Condition
Scattered @ 6,500 ft
Scattered @ 1,300 ft
Scattered @ 900 ft
VFR

METAR KI19 240535Z AUTO 18012G21KT 150V210 10SM SCT009 SCT013 SCT065 14/12 A2956 RMK AO2 LTG DSNT S P0002 T01350121

FAA Disclaimer: The data displayed is for advisory purposes only and is not to be used for flight planning or operations.